Terminal Aerodrome Forecast
Issued by NWS Cleveland, OH

Home | Current Version | Previous Version | Graphics & Text | Print | Product List | Glossary Off
Versions: 1 2 3 4 5 6 7 8 9 10 11 12 13 14 15 16 17 18

000
FTUS41 KCLE 242336
TAFYNG
TAF
KYNG 242336Z 2500/2524 17005KT P6SM SCT080 BKN150
     FM250700 21004KT 4SM BR SCT200
     FM251400 25008KT P6SM VCSH BKN040 OVC080
     FM251900 26008KT P6SM SCT035 BKN100=

USA.gov is the U.S. government's official web portal to all federal, state and local government web resources and services.